sensor_id;sensor_type;location;lat;lon;timestamp;pressure;altitude;pressure_sealevel;temperature;humidity
43691;BME280;29293;52.190;21.226;2023-05-01T00:14:46;100950.77;;;1.79;100.00
43691;BME280;29293;52.190;21.226;2023-05-01T00:29:53;100946.90;;;1.49;100.00
43691;BME280;29293;52.190;21.226;2023-05-01T00:45:00;100957.91;;;1.34;100.00
43691;BME280;29293;52.190;21.226;2023-05-01T01:00:09;100962.11;;;1.14;100.00
43691;BME280;29293;52.190;21.226;2023-05-01T01:15:20;100968.75;;;0.94;100.00
43691;BME280;29293;52.190;21.226;2023-05-01T01:30:59;100973.71;;;0.70;100.00
43691;BME280;29293;52.190;21.226;2023-05-01T01:46:11;100976.77;;;0.61;100.00
43691;BME280;29293;52.190;21.226;2023-05-01T02:01:20;100979.09;;;0.44;100.00
43691;BME280;29293;52.190;21.226;2023-05-01T02:16:28;100985.29;;;0.22;100.00
43691;BME280;29293;52.190;21.226;2023-05-01T02:31:36;100992.85;;;-0.05;100.00
43691;BME280;29293;52.190;21.226;2023-05-01T02:46:45;100989.98;;;-0.35;100.00
43691;BME280;29293;52.190;21.226;2023-05-01T03:01:54;100985.41;;;-0.59;100.00
43691;BME280;29293;52.190;21.226;2023-05-01T03:17:01;100986.94;;;-0.89;100.00
43691;BME280;29293;52.190;21.226;2023-05-01T03:32:08;100983.34;;;-0.98;100.00
43691;BME280;29293;52.190;21.226;2023-05-01T03:47:14;100980.38;;;-0.96;100.00
43691;BME280;29293;52.190;21.226;2023-05-01T04:02:21;100981.91;;;-0.76;100.00
43691;BME280;29293;52.190;21.226;2023-05-01T04:17:29;100975.27;;;-0.38;100.00
43691;BME280;29293;52.190;21.226;2023-05-01T04:32:36;100974.45;;;0.41;100.00
43691;BME280;29293;52.190;21.226;2023-05-01T04:47:43;100968.25;;;1.26;100.00
43691;BME280;29293;52.190;21.226;2023-05-01T05:02:50;100970.14;;;2.08;100.00
43691;BME280;29293;52.190;21.226;2023-05-01T05:17:57;100975.32;;;3.26;100.00
43691;BME280;29293;52.190;21.226;2023-05-01T05:33:05;100965.93;;;4.66;100.00
43691;BME280;29293;52.190;21.226;2023-05-01T05:48:13;100964.44;;;5.56;100.00
43691;BME280;29293;52.190;21.226;2023-05-01T06:03:19;100962.94;;;6.26;100.00
43691;BME280;29293;52.190;21.226;2023-05-01T06:18:26;100959.79;;;6.90;100.00
43691;BME280;29293;52.190;21.226;2023-05-01T06:33:34;100968.40;;;8.00;87.49
43691;BME280;29293;52.190;21.226;2023-05-01T06:48:41;100965.61;;;9.37;69.41
43691;BME280;29293;52.190;21.226;2023-05-01T07:03:50;100960.60;;;10.66;60.50
43691;BME280;29293;52.190;21.226;2023-05-01T07:18:57;100954.63;;;11.07;53.82
43691;BME280;29293;52.190;21.226;2023-05-01T07:34:04;100950.37;;;11.44;52.87
43691;BME280;29293;52.190;21.226;2023-05-01T07:49:13;100947.64;;;12.13;50.94
43691;BME280;29293;52.190;21.226;2023-05-01T08:04:20;100938.52;;;12.63;48.02
43691;BME280;29293;52.190;21.226;2023-05-01T08:19:27;100931.40;;;13.20;46.99
43691;BME280;29293;52.190;21.226;2023-05-01T08:49:48;100932.73;;;14.09;44.80
43691;BME280;29293;52.190;21.226;2023-05-01T09:04:56;100930.20;;;14.20;42.75
43691;BME280;29293;52.190;21.226;2023-05-01T09:20:07;100929.10;;;14.47;41.83
43691;BME280;29293;52.190;21.226;2023-05-01T09:35:16;100919.14;;;14.73;40.15
43691;BME280;29293;52.190;21.226;2023-05-01T09:50:33;100896.17;;;15.05;39.77
43691;BME280;29293;52.190;21.226;2023-05-01T10:05:47;100890.03;;;15.72;37.78
43691;BME280;29293;52.190;21.226;2023-05-01T10:20:54;100879.32;;;16.28;36.46
43691;BME280;29293;52.190;21.226;2023-05-01T10:36:10;100868.61;;;16.65;33.30
43691;BME280;29293;52.190;21.226;2023-05-01T10:51:21;100842.23;;;17.02;34.10
43691;BME280;29293;52.190;21.226;2023-05-01T11:06:33;100827.40;;;17.28;34.20
43691;BME280;29293;52.190;21.226;2023-05-01T11:33:24;100811.17;;;17.84;31.60
43691;BME280;29293;52.190;21.226;2023-05-01T11:48:32;100784.23;;;18.37;30.65
43691;BME280;29293;52.190;21.226;2023-05-01T12:03:42;100771.29;;;18.66;30.89
43691;BME280;29293;52.190;21.226;2023-05-01T12:18:50;100761.91;;;18.83;29.39
43691;BME280;29293;52.190;21.226;2023-05-01T12:33:58;100741.73;;;18.91;30.55
43691;BME280;29293;52.190;21.226;2023-05-01T12:49:06;100735.27;;;19.42;29.73
43691;BME280;29293;52.190;21.226;2023-05-01T13:04:24;100715.55;;;19.42;29.36
43691;BME280;29293;52.190;21.226;2023-05-01T13:19:31;100696.22;;;19.52;28.99
43691;BME280;29293;52.190;21.226;2023-05-01T13:34:43;100677.40;;;19.38;28.40
43691;BME280;29293;52.190;21.226;2023-05-01T13:49:50;100664.98;;;19.35;28.74
43691;BME280;29293;52.190;21.226;2023-05-01T14:04:57;100652.80;;;19.41;28.76
43691;BME280;29293;52.190;21.226;2023-05-01T14:20:04;100634.61;;;19.42;29.08
43691;BME280;29293;52.190;21.226;2023-05-01T14:35:11;100620.13;;;19.20;30.07
43691;BME280;29293;52.190;21.226;2023-05-01T14:50:23;100611.52;;;19.26;30.34
43691;BME280;29293;52.190;21.226;2023-05-01T15:05:30;100596.38;;;19.03;30.06
43691;BME280;29293;52.190;21.226;2023-05-01T15:20:37;100588.95;;;18.56;29.92
43691;BME280;29293;52.190;21.226;2023-05-01T15:35:45;100579.65;;;18.09;29.26
43691;BME280;29293;52.190;21.226;2023-05-01T16:06:34;100537.14;;;16.88;32.20
43691;BME280;29293;52.190;21.226;2023-05-01T16:21:41;100535.04;;;16.59;33.53
43691;BME280;29293;52.190;21.226;2023-05-01T16:36:53;100535.81;;;16.38;34.72
43691;BME280;29293;52.190;21.226;2023-05-01T16:52:01;100524.91;;;16.07;35.61
43691;BME280;29293;52.190;21.226;2023-05-01T17:07:07;100512.52;;;15.70;35.99
43691;BME280;29293;52.190;21.226;2023-05-01T17:22:14;100512.25;;;15.20;37.32
43691;BME280;29293;52.190;21.226;2023-05-01T17:37:21;100512.51;;;14.62;38.48
43691;BME280;29293;52.190;21.226;2023-05-01T17:52:28;100512.98;;;14.01;40.22
43691;BME280;29293;52.190;21.226;2023-05-01T18:07:36;100512.28;;;13.22;42.01
43691;BME280;29293;52.190;21.226;2023-05-01T18:22:43;100517.80;;;12.40;44.02
43691;BME280;29293;52.190;21.226;2023-05-01T18:37:50;100521.14;;;11.58;46.19
43691;BME280;29293;52.190;21.226;2023-05-01T18:52:58;100517.29;;;10.93;47.80
43691;BME280;29293;52.190;21.226;2023-05-01T19:08:05;100518.46;;;10.43;49.05
43691;BME280;29293;52.190;21.226;2023-05-01T19:23:14;100520.73;;;10.12;50.74
43691;BME280;29293;52.190;21.226;2023-05-01T19:38:20;100505.83;;;9.73;52.01
43691;BME280;29293;52.190;21.226;2023-05-01T19:53:27;100495.63;;;9.48;53.42
43691;BME280;29293;52.190;21.226;2023-05-01T20:08:35;100481.91;;;9.29;53.79
43691;BME280;29293;52.190;21.226;2023-05-01T20:23:43;100470.78;;;9.20;54.15
43691;BME280;29293;52.190;21.226;2023-05-01T20:38:50;100473.58;;;9.04;54.89
43691;BME280;29293;52.190;21.226;2023-05-01T20:53:57;100473.30;;;8.87;55.06
43691;BME280;29293;52.190;21.226;2023-05-01T21:09:04;100472.91;;;8.63;56.36
43691;BME280;29293;52.190;21.226;2023-05-01T21:24:18;100473.91;;;8.41;56.75
43691;BME280;29293;52.190;21.226;2023-05-01T21:39:26;100471.74;;;8.15;58.39
43691;BME280;29293;52.190;21.226;2023-05-01T21:54:33;100471.33;;;7.96;59.33
43691;BME280;29293;52.190;21.226;2023-05-01T22:09:41;100470.30;;;7.80;60.56
43691;BME280;29293;52.190;21.226;2023-05-01T22:24:48;100463.33;;;7.49;62.79
43691;BME280;29293;52.190;21.226;2023-05-01T22:39:54;100460.38;;;7.14;65.48
43691;BME280;29293;52.190;21.226;2023-05-01T22:55:01;100449.79;;;6.77;68.38
43691;BME280;29293;52.190;21.226;2023-05-01T23:10:09;100435.15;;;6.42;72.29
43691;BME280;29293;52.190;21.226;2023-05-01T23:25:22;100428.32;;;6.18;76.66
43691;BME280;29293;52.190;21.226;2023-05-01T23:40:30;100423.67;;;5.95;81.17
43691;BME280;29293;52.190;21.226;2023-05-01T23:55:37;100416.56;;;5.68;85.87
